Time;durP1;ratioP1;P1;durP2;ratioP2;P2;SDS_P1;SDS_P2;PMS_P1;PMS_P2;Temp;Humidity;BMP_temperature;BMP_pressure;BME280_temperature;BME280_humidity;BME280_pressure;Samples;Min_cycle;Max_cycle;Signal;HPM_P1;HPM_P2
2022/01/27 00:05:23;;;;;;;19.27;7.22;;;;;;;5.57;54.74;102532.84;5031233;28;20034;-78
2022/01/27 00:10:54;;;;;;;17.00;6.75;;;;;;;5.58;53.96;102529.44;4999917;28;20094;-79
2022/01/27 00:13:25;;;;;;;23.88;7.10;;;;;;;5.61;54.02;102525.25;5028898;28;20725;-78
2022/01/27 00:15:59;;;;;;;15.00;6.40;;;;;;;5.67;54.12;102524.53;5031992;28;20361;-78
2022/01/27 00:18:25;;;;;;;17.67;7.30;;;;;;;5.84;52.49;102531.00;5027494;28;20049;-79
2022/01/27 00:20:50;;;;;;;18.35;7.18;;;;;;;5.61;54.43;102532.09;5030985;28;20456;-78
2022/01/27 00:23:16;;;;;;;16.80;6.60;;;;;;;5.73;53.01;102532.44;5026744;28;20045;-78
2022/01/27 00:25:42;;;;;;;15.50;6.57;;;;;;;5.59;53.46;102542.38;5034140;28;20928;-78
2022/01/27 00:28:08;;;;;;;15.30;7.20;;;;;;;5.61;53.89;102551.03;5027830;28;20049;-78
2022/01/27 00:30:35;;;;;;;15.88;6.65;;;;;;;5.75;53.91;102554.84;5008762;28;20403;-79
2022/01/27 00:33:03;;;;;;;16.35;6.63;;;;;;;5.90;52.86;102557.84;5024303;28;20064;-79
2022/01/27 00:35:29;;;;;;;17.60;6.18;;;;;;;5.71;53.37;102560.75;5031115;28;20086;-79
2022/01/27 00:37:54;;;;;;;15.65;6.55;;;;;;;5.64;53.60;102552.81;5027169;28;20029;-79
2022/01/27 00:40:21;;;;;;;20.90;7.88;;;;;;;5.70;53.71;102545.25;5040531;28;20049;-78
2022/01/27 00:42:47;;;;;;;18.58;7.38;;;;;;;5.63;54.54;102533.88;5028804;28;20097;-78
2022/01/27 00:45:13;;;;;;;14.25;6.35;;;;;;;5.59;54.22;102526.03;5028051;28;20042;-79
2022/01/27 00:47:39;;;;;;;14.60;7.38;;;;;;;5.53;54.97;102523.31;5033442;28;20037;-78
2022/01/27 00:50:04;;;;;;;17.30;6.70;;;;;;;5.65;53.68;102506.47;5029827;28;20025;-79
2022/01/27 00:52:41;;;;;;;17.75;6.53;;;;;;;5.68;53.77;102518.56;5026254;28;20044;-78
2022/01/27 00:55:08;;;;;;;20.95;6.22;;;;;;;5.75;54.00;102510.13;5030412;28;20112;-79
2022/01/27 00:58:32;;;;;;;16.27;6.18;;;;;;;5.56;55.54;102501.06;5026550;28;20037;-79
2022/01/27 01:00:57;;;;;;;18.83;6.72;;;;;;;5.64;56.15;102499.56;5017081;28;20044;-79
2022/01/27 01:03:24;;;;;;;16.77;7.05;;;;;;;5.56;54.90;102506.22;5031292;28;20084;-78
2022/01/27 01:17:23;;;;;;;15.73;6.47;;;;;;;5.75;54.62;102492.97;5033504;28;20044;-79
2022/01/27 01:32:16;;;;;;;32.28;11.20;;;;;;;5.69;54.01;102473.88;5031733;28;20053;-79
2022/01/27 01:34:46;;;;;;;29.83;11.05;;;;;;;5.73;54.11;102471.44;5026905;28;20037;-79
2022/01/27 01:37:12;;;;;;;33.70;11.80;;;;;;;5.68;54.65;102462.72;5023814;28;20045;-78
2022/01/27 01:39:38;;;;;;;27.42;10.52;;;;;;;5.88;53.77;102460.63;5031207;28;20029;-79
2022/01/27 01:42:07;;;;;;;29.85;10.98;;;;;;;5.65;54.78;102454.03;5026210;28;20436;-79
2022/01/27 01:44:33;;;;;;;29.13;10.27;;;;;;;5.70;54.25;102448.16;5024646;28;20048;-78
2022/01/27 01:46:58;;;;;;;26.92;10.23;;;;;;;5.89;53.26;102434.88;5026785;28;20068;-78
2022/01/27 01:49:26;;;;;;;26.55;9.45;;;;;;;5.63;55.04;102432.47;5029802;28;20037;-79
2022/01/27 01:51:54;;;;;;;35.95;11.10;;;;;;;5.64;55.72;102441.97;5023965;28;20064;-79
2022/01/27 01:54:19;;;;;;;33.50;11.45;;;;;;;5.61;55.29;102440.19;5028152;28;20051;-79
2022/01/27 01:56:45;;;;;;;33.10;10.65;;;;;;;5.63;55.90;102435.03;5026187;28;20041;-79
2022/01/27 01:59:11;;;;;;;27.83;9.25;;;;;;;5.43;55.96;102434.53;5027641;28;20092;-79
2022/01/27 02:01:37;;;;;;;28.30;10.65;;;;;;;5.61;54.75;102431.56;5024515;28;20095;-79
2022/01/27 02:04:07;;;;;;;38.85;11.80;;;;;;;5.76;54.39;102430.25;5034040;28;20045;-79
2022/01/27 02:06:39;;;;;;;29.98;9.38;;;;;;;5.69;54.46;102433.50;5025816;28;20056;-78
2022/01/27 02:09:20;;;;;;;32.30;11.38;;;;;;;5.64;55.18;102436.81;5026695;28;20044;-79
2022/01/27 02:20:00;;;;;;;27.70;8.57;;;;;;;5.62;55.50;102433.31;5025092;28;20095;-78
2022/01/27 02:22:26;;;;;;;29.05;9.65;;;;;;;5.63;54.58;102433.34;5030879;28;20532;-78
2022/01/27 02:24:52;;;;;;;27.08;10.23;;;;;;;5.53;55.70;102438.25;5028013;28;20041;-78
2022/01/27 02:27:19;;;;;;;23.65;8.85;;;;;;;5.69;54.52;102442.94;5038503;28;20038;-78
2022/01/27 02:29:45;;;;;;;23.92;8.98;;;;;;;5.61;55.92;102427.28;5024267;28;20029;-78
2022/01/27 02:32:12;;;;;;;29.20;9.65;;;;;;;5.55;55.41;102437.44;5032995;28;20033;-78
2022/01/27 02:34:39;;;;;;;26.17;8.85;;;;;;;5.72;55.18;102441.31;5026756;28;20033;-78
2022/01/27 02:37:05;;;;;;;20.27;7.95;;;;;;;5.76;54.37;102438.00;5026431;28;20045;-79
2022/01/27 02:39:30;;;;;;;26.30;8.80;;;;;;;5.66;55.04;102440.28;5027690;28;20647;-78
2022/01/27 02:42:05;;;;;;;26.30;10.13;;;;;;;5.56;55.99;102434.03;5023968;28;20060;-78
2022/01/27 02:44:45;;;;;;;26.85;9.35;;;;;;;5.80;53.46;102432.06;5042148;28;20025;-78
2022/01/27 02:47:15;;;;;;;26.08;9.50;;;;;;;5.68;54.69;102426.63;5026605;28;20053;-79
2022/01/27 02:49:41;;;;;;;23.77;8.13;;;;;;;5.63;54.60;102423.03;5030506;28;20187;-79
2022/01/27 02:52:07;;;;;;;23.33;9.05;;;;;;;5.77;55.25;102420.81;5026345;28;20128;-79
2022/01/27 02:54:33;;;;;;;25.27;8.88;;;;;;;5.71;55.74;102418.94;5030294;28;20053;-79
2022/01/27 02:57:00;;;;;;;19.48;8.30;;;;;;;5.54;55.51;102415.06;5022594;28;20097;-78
2022/01/27 02:59:25;;;;;;;25.15;8.85;;;;;;;5.70;54.01;102412.06;5026728;28;20026;-78
2022/01/27 03:01:52;;;;;;;21.95;8.63;;;;;;;5.62;55.35;102407.53;5024003;28;20120;-79
2022/01/27 03:04:19;;;;;;;22.70;8.65;;;;;;;5.72;55.56;102397.47;5028780;28;20036;-78
2022/01/27 03:06:46;;;;;;;24.75;8.63;;;;;;;5.78;54.75;102391.59;5024902;28;20587;-79
2022/01/27 03:09:12;;;;;;;22.92;9.05;;;;;;;5.73;55.04;102380.31;5032843;28;20045;-79
2022/01/27 03:11:48;;;;;;;22.73;7.53;;;;;;;5.69;54.31;102381.94;5028937;28;20483;-79
2022/01/27 03:14:16;;;;;;;23.05;8.00;;;;;;;5.51;55.34;102378.91;5026035;28;20082;-79
2022/01/27 03:16:44;;;;;;;21.27;8.25;;;;;;;5.62;54.96;102374.91;5031339;28;20041;-78
2022/01/27 03:19:10;;;;;;;21.67;7.57;;;;;;;5.72;54.32;102378.56;5023384;28;20051;-79
2022/01/27 03:21:36;;;;;;;21.10;8.07;;;;;;;5.36;55.37;102376.81;5030337;28;20528;-78
2022/01/27 03:24:02;;;;;;;25.38;8.20;;;;;;;5.62;54.96;102363.72;5028677;28;20096;-78
2022/01/27 03:26:28;;;;;;;24.73;9.57;;;;;;;5.66;54.80;102356.09;5032666;28;20033;-79
2022/01/27 03:28:55;;;;;;;24.45;8.38;;;;;;;5.62;54.86;102349.13;5028759;28;20049;-79
2022/01/27 03:31:21;;;;;;;20.90;8.13;;;;;;;5.64;54.08;102344.00;5045943;28;20044;-79
2022/01/27 03:33:47;;;;;;;24.15;7.90;;;;;;;5.81;53.37;102353.88;5027189;28;20033;-79
2022/01/27 03:36:15;;;;;;;19.10;7.22;;;;;;;5.53;54.01;102354.06;5029119;28;20082;-78
2022/01/27 03:38:42;;;;;;;18.63;7.93;;;;;;;5.54;54.52;102358.34;5026934;28;20547;-78
2022/01/27 03:41:09;;;;;;;22.23;7.65;;;;;;;5.68;53.67;102357.00;5028927;28;20048;-78
2022/01/27 03:43:36;;;;;;;20.25;8.10;;;;;;;5.51;54.15;102352.25;5029380;28;20049;-79
2022/01/27 03:46:03;;;;;;;22.55;7.97;;;;;;;5.58;53.94;102344.72;5030898;28;20042;-78
2022/01/27 03:48:29;;;;;;;22.60;7.95;;;;;;;5.58;53.86;102339.56;5034190;28;20045;-78
2022/01/27 03:50:55;;;;;;;17.13;7.38;;;;;;;5.77;54.10;102331.41;5048037;28;20052;-78
2022/01/27 03:53:21;;;;;;;18.95;7.28;;;;;;;5.67;53.88;102323.44;5031377;28;20021;-78
2022/01/27 03:55:47;;;;;;;24.05;7.75;;;;;;;5.77;53.40;102322.84;5028236;28;20048;-79
2022/01/27 03:58:13;;;;;;;23.52;8.40;;;;;;;5.82;53.68;102322.09;5027765;28;20033;-78
2022/01/27 04:00:38;;;;;;;23.70;7.75;;;;;;;5.88;53.28;102326.53;5025127;28;20076;-79
2022/01/27 04:03:10;;;;;;;18.10;6.43;;;;;;;5.92;52.53;102328.34;5029436;28;20030;-78
2022/01/27 04:05:41;;;;;;;14.38;6.70;;;;;;;5.61;53.40;102331.91;5025154;28;20462;-78
2022/01/27 04:08:09;;;;;;;20.13;7.25;;;;;;;5.74;53.64;102327.94;5035464;28;20120;-78
2022/01/27 04:10:35;;;;;;;19.08;7.05;;;;;;;5.68;52.97;102309.72;5025746;28;20033;-78
2022/01/27 04:13:02;;;;;;;23.35;8.43;;;;;;;5.73;52.97;102315.84;5033979;28;20119;-78
2022/01/27 04:15:28;;;;;;;17.95;7.28;;;;;;;5.79;53.24;102311.72;5027586;28;20714;-79
2022/01/27 04:17:54;;;;;;;21.35;7.60;;;;;;;5.75;53.29;102311.59;5033325;28;20044;-78
2022/01/27 04:20:20;;;;;;;25.35;7.53;;;;;;;5.74;52.84;102300.41;5029079;28;20056;-78
2022/01/27 04:22:46;;;;;;;17.33;7.47;;;;;;;5.60;53.03;102290.59;5031024;28;20049;-78
2022/01/27 04:25:13;;;;;;;17.48;7.35;;;;;;;5.85;53.15;102292.94;5033232;28;20068;-78
2022/01/27 04:27:42;;;;;;;20.73;7.07;;;;;;;5.75;53.21;102284.13;5027809;28;20030;-79
2022/01/27 04:30:14;;;;;;;21.38;7.80;;;;;;;5.63;53.06;102277.78;5037235;28;20468;-79
2022/01/27 04:32:45;;;;;;;20.70;7.55;;;;;;;5.75;53.27;102281.53;5026052;28;20033;-79
2022/01/27 04:35:15;;;;;;;19.08;7.30;;;;;;;5.81;52.80;102289.41;5038837;28;20029;-79
2022/01/27 04:37:52;;;;;;;18.48;7.00;;;;;;;5.63;53.84;102293.25;5027270;28;20037;-78
2022/01/27 04:40:20;;;;;;;19.17;7.13;;;;;;;5.73;53.12;102296.09;5024285;28;20052;-79
2022/01/27 04:42:57;;;;;;;20.30;7.25;;;;;;;5.82;52.73;102291.16;5043450;28;20107;-79
2022/01/27 04:45:28;;;;;;;17.98;6.40;;;;;;;5.85;52.65;102291.22;5025678;28;20418;-79
2022/01/27 04:48:04;;;;;;;22.63;8.68;;;;;;;5.79;53.78;102291.09;5025355;28;20044;-79
2022/01/27 04:50:29;;;;;;;22.45;7.55;;;;;;;5.76;54.47;102283.28;5037614;28;20108;-78
2022/01/27 04:52:56;;;;;;;20.52;7.25;;;;;;;5.83;53.41;102276.56;5043493;28;20080;-79
2022/01/27 04:55:23;;;;;;;18.45;6.50;;;;;;;5.70;53.41;102266.81;5024527;28;20048;-79
2022/01/27 04:57:55;;;;;;;18.58;6.78;;;;;;;5.76;54.25;102267.81;5028099;28;20402;-78
2022/01/27 05:00:21;;;;;;;23.52;7.30;;;;;;;5.86;53.71;102259.44;5010570;28;20565;-78
2022/01/27 05:02:55;;;;;;;22.05;7.55;;;;;;;5.60;54.27;102265.72;5025958;28;20172;-78
2022/01/27 05:05:21;;;;;;;19.02;7.30;;;;;;;5.76;53.91;102247.19;5025960;28;20056;-78
2022/01/27 05:07:55;;;;;;;17.90;7.07;;;;;;;5.83;53.48;102251.63;5033029;28;20124;-79
2022/01/27 05:10:23;;;;;;;20.95;6.75;;;;;;;5.91;54.14;102252.69;5042352;28;20533;-79
2022/01/27 05:12:52;;;;;;;17.65;6.88;;;;;;;5.83;54.00;102250.78;5029853;28;20052;-79
2022/01/27 05:15:18;;;;;;;20.45;7.72;;;;;;;6.04;52.56;102246.94;5031248;28;20033;-79
2022/01/27 05:17:43;;;;;;;20.73;7.22;;;;;;;5.95;54.22;102243.31;5035670;28;20402;-79
2022/01/27 05:20:10;;;;;;;16.88;7.18;;;;;;;5.87;54.05;102235.38;5031223;28;20462;-79
2022/01/27 05:22:35;;;;;;;19.05;7.00;;;;;;;6.04;53.30;102230.56;5033596;28;20041;-79
2022/01/27 05:25:01;;;;;;;15.88;6.93;;;;;;;5.84;53.92;102224.13;5031042;28;20048;-79
2022/01/27 05:27:26;;;;;;;19.67;7.72;;;;;;;5.98;54.13;102227.88;5029379;28;20041;-79
2022/01/27 05:29:52;;;;;;;15.73;6.63;;;;;;;5.83;53.79;102215.53;5027662;28;20163;-77
2022/01/27 05:32:20;;;;;;;13.23;5.97;;;;;;;5.90;53.95;102213.94;5025331;28;20041;-76
2022/01/27 05:34:47;;;;;;;20.90;7.20;;;;;;;5.96;54.08;102201.19;5033073;28;20052;-77
2022/01/27 05:37:12;;;;;;;18.40;6.95;;;;;;;5.96;54.70;102203.75;5030986;28;20172;-76
2022/01/27 05:39:38;;;;;;;19.15;6.70;;;;;;;6.00;53.52;102201.28;5027141;28;20116;-77
2022/01/27 05:42:03;;;;;;;17.95;6.43;;;;;;;5.93;54.20;102204.56;5025308;28;20045;-77
2022/01/27 05:44:31;;;;;;;19.58;6.47;;;;;;;5.91;54.91;102198.53;5027348;28;20029;-76
2022/01/27 05:46:57;;;;;;;15.27;6.50;;;;;;;6.01;53.91;102195.28;5025427;28;20078;-77
2022/01/27 05:49:23;;;;;;;16.52;7.50;;;;;;;5.98;54.80;102179.75;5026157;28;20025;-77
2022/01/27 05:51:48;;;;;;;18.15;6.80;;;;;;;5.83;54.05;102184.56;5027368;28;20090;-77
2022/01/27 05:54:13;;;;;;;15.07;6.13;;;;;;;6.03;54.59;102165.25;5022586;28;20042;-76
2022/01/27 05:56:39;;;;;;;17.13;7.45;;;;;;;5.82;54.71;102166.50;5025328;28;20047;-76
2022/01/27 05:59:04;;;;;;;17.58;6.53;;;;;;;6.06;54.82;102154.13;5028613;28;20061;-76
2022/01/27 06:01:30;;;;;;;15.60;7.68;;;;;;;5.90;55.08;102146.91;5024605;28;20049;-76
2022/01/27 06:03:55;;;;;;;16.92;7.22;;;;;;;5.86;55.55;102132.22;5027679;28;20540;-76
2022/01/27 06:06:21;;;;;;;20.38;6.43;;;;;;;5.78;55.83;102134.63;5040360;28;20129;-76
2022/01/27 06:08:46;;;;;;;18.15;6.43;;;;;;;5.98;55.12;102135.88;5027478;28;20118;-76
2022/01/27 06:11:12;;;;;;;19.48;7.53;;;;;;;5.90;55.89;102136.56;5022716;28;20040;-76
2022/01/27 06:13:37;;;;;;;16.00;7.10;;;;;;;5.98;56.20;102130.72;5029193;28;20037;-76
2022/01/27 06:16:09;;;;;;;17.17;6.88;;;;;;;5.81;56.67;102138.97;5029818;28;20132;-76
2022/01/27 06:18:35;;;;;;;19.15;7.07;;;;;;;5.97;55.80;102131.59;5025843;28;20460;-76
2022/01/27 06:21:03;;;;;;;17.63;6.78;;;;;;;6.01;56.09;102130.78;5023396;28;20041;-76
2022/01/27 06:23:29;;;;;;;16.48;7.65;;;;;;;5.92;56.57;102122.03;5025014;28;20029;-76
2022/01/27 06:25:54;;;;;;;16.80;7.43;;;;;;;6.16;55.98;102125.03;5025369;28;20052;-76
2022/01/27 06:28:20;;;;;;;14.77;7.05;;;;;;;6.00;56.16;102116.19;5028925;28;20048;-76
2022/01/27 06:30:46;;;;;;;16.98;7.30;;;;;;;5.95;57.07;102120.34;5042629;28;20390;-76
2022/01/27 06:33:11;;;;;;;21.30;7.70;;;;;;;6.03;57.01;102113.66;5025412;28;20410;-76
2022/01/27 06:35:38;;;;;;;16.20;6.90;;;;;;;6.09;56.60;102110.31;5038830;28;20026;-76
2022/01/27 06:38:04;;;;;;;20.88;7.68;;;;;;;6.03;57.35;102102.47;5024447;28;20024;-76
2022/01/27 06:40:30;;;;;;;18.60;6.50;;;;;;;6.20;57.16;102088.16;5027428;28;20037;-76
2022/01/27 06:42:55;;;;;;;15.07;7.05;;;;;;;6.09;56.77;102093.97;5024857;28;20596;-76
2022/01/27 06:45:21;;;;;;;14.10;6.35;;;;;;;5.98;56.55;102086.88;5022755;28;20103;-76
2022/01/27 06:47:47;;;;;;;16.92;6.97;;;;;;;6.22;57.14;102090.75;5023465;28;20052;-76
2022/01/27 06:50:13;;;;;;;19.92;8.27;;;;;;;6.02;57.48;102083.53;5025707;28;20021;-79
2022/01/27 06:52:39;;;;;;;17.65;6.68;;;;;;;6.23;57.67;102088.22;5028083;28;20091;-80
2022/01/27 06:55:05;;;;;;;16.35;6.70;;;;;;;6.00;57.80;102090.38;5023497;28;20041;-79
2022/01/27 06:57:33;;;;;;;17.00;7.50;;;;;;;6.14;58.87;102095.78;5027952;28;20056;-79
2022/01/27 06:59:59;;;;;;;15.27;6.68;;;;;;;6.12;58.14;102081.13;5032752;28;20063;-79
2022/01/27 07:02:24;;;;;;;16.08;6.05;;;;;;;6.15;59.21;102076.03;5032226;28;20030;-79
2022/01/27 07:04:50;;;;;;;18.35;6.97;;;;;;;6.28;59.51;102071.09;5025075;28;20045;-76
2022/01/27 07:07:15;;;;;;;17.52;7.07;;;;;;;6.24;59.80;102071.03;5024793;28;20049;-76
2022/01/27 07:09:41;;;;;;;13.68;6.60;;;;;;;6.39;59.61;102069.59;5027332;28;20042;-76
2022/01/27 07:12:07;;;;;;;15.30;6.95;;;;;;;6.39;59.25;102063.53;5035019;28;20535;-76
2022/01/27 07:14:33;;;;;;;12.55;5.97;;;;;;;6.41;59.79;102061.84;5033300;28;20033;-76
2022/01/27 07:17:00;;;;;;;12.13;5.97;;;;;;;6.35;60.23;102062.63;5033174;28;20100;-76
2022/01/27 07:19:25;;;;;;;14.88;6.60;;;;;;;6.36;60.44;102053.16;5034253;28;20037;-76
2022/01/27 07:21:51;;;;;;;13.18;6.32;;;;;;;6.48;60.04;102045.66;5032120;28;20128;-76
2022/01/27 07:24:16;;;;;;;16.92;6.82;;;;;;;6.41;59.89;102054.97;5032674;28;20124;-76
2022/01/27 07:26:46;;;;;;;14.45;5.80;;;;;;;6.33;60.19;102051.41;5045745;28;20025;-76
2022/01/27 07:29:12;;;;;;;15.05;6.40;;;;;;;6.35;60.14;102048.84;5025919;28;20022;-76
2022/01/27 07:31:37;;;;;;;15.90;6.68;;;;;;;6.56;59.17;102042.34;5027764;28;20112;-76
2022/01/27 07:34:03;;;;;;;11.10;5.75;;;;;;;6.49;59.02;102043.09;5032637;28;20038;-76
2022/01/27 07:36:31;;;;;;;14.02;5.93;;;;;;;6.45;60.32;102043.00;5028614;28;20148;-76
2022/01/27 07:38:57;;;;;;;14.43;6.03;;;;;;;6.63;59.66;102039.88;5030266;28;20057;-76
2022/01/27 07:41:22;;;;;;;15.15;6.32;;;;;;;6.56;58.19;102044.06;5032788;28;20108;-76
2022/01/27 07:43:48;;;;;;;14.70;6.00;;;;;;;6.60;58.55;102043.28;5029478;28;20124;-76
2022/01/27 07:46:14;;;;;;;13.38;5.97;;;;;;;6.67;58.49;102041.63;5027158;28;20056;-76
2022/01/27 07:48:40;;;;;;;12.10;5.93;;;;;;;6.63;57.46;102045.91;5036681;28;20041;-76
2022/01/27 07:51:08;;;;;;;17.10;6.30;;;;;;;6.61;59.18;102055.31;5023978;28;21511;-76
2022/01/27 07:53:34;;;;;;;16.38;5.68;;;;;;;6.61;59.01;102051.88;5030815;28;20387;-76
2022/01/27 07:56:02;;;;;;;14.88;5.88;;;;;;;6.66;58.29;102045.09;5028533;28;20043;-76
2022/01/27 07:58:31;;;;;;;14.80;5.90;;;;;;;6.76;58.35;102045.22;5037962;28;20060;-76
2022/01/27 08:00:57;;;;;;;13.82;6.15;;;;;;;6.75;59.41;102045.22;5026697;28;20042;-76
2022/01/27 08:03:23;;;;;;;14.93;6.13;;;;;;;6.74;58.94;102041.75;5030866;28;20071;-76
2022/01/27 08:05:48;;;;;;;14.07;6.05;;;;;;;6.62;60.23;102040.69;5027294;28;20033;-76
2022/01/27 08:08:14;;;;;;;10.73;5.47;;;;;;;6.58;59.92;102029.44;5033537;28;20116;-76
2022/01/27 08:10:39;;;;;;;12.20;5.55;;;;;;;6.70;60.13;102034.81;5027333;28;20060;-76
2022/01/27 08:13:06;;;;;;;15.82;5.80;;;;;;;6.64;60.12;102029.53;5036832;28;20041;-76
2022/01/27 08:15:33;;;;;;;12.40;5.25;;;;;;;6.76;59.39;102037.47;5027416;28;20528;-76
2022/01/27 08:17:59;;;;;;;18.08;5.95;;;;;;;6.75;59.57;102033.16;5030092;28;20039;-76
2022/01/27 08:20:24;;;;;;;11.80;5.40;;;;;;;6.76;60.48;102027.16;5027138;28;21335;-76
2022/01/27 08:22:52;;;;;;;15.88;6.35;;;;;;;6.81;59.81;102035.81;5029384;28;20042;-76
2022/01/27 08:25:20;;;;;;;14.00;6.55;;;;;;;6.85;59.73;102026.41;5038903;28;20127;-76
2022/01/27 08:27:47;;;;;;;13.18;5.85;;;;;;;6.99;59.05;102024.88;5028210;28;20034;-76
2022/01/27 08:30:16;;;;;;;14.68;6.30;;;;;;;6.86;59.54;102029.03;5030981;28;20041;-76
2022/01/27 08:35:12;;;;;;;13.48;5.32;;;;;;;6.93;58.89;102015.34;5032088;28;20025;-76
2022/01/27 08:37:38;;;;;;;17.85;6.63;;;;;;;6.97;59.19;102011.97;5026869;28;20152;-76
2022/01/27 08:40:04;;;;;;;13.98;5.93;;;;;;;6.90;58.65;102001.53;5033821;28;20029;-76
2022/01/27 08:42:30;;;;;;;13.55;5.45;;;;;;;6.96;59.64;102009.38;5027784;28;20578;-76
2022/01/27 08:44:55;;;;;;;12.77;5.78;;;;;;;6.83;58.54;102017.78;5028722;28;20045;-76
2022/01/27 08:47:21;;;;;;;17.65;6.63;;;;;;;6.92;59.17;102017.91;5042847;28;20681;-76
2022/01/27 08:49:47;;;;;;;12.02;5.95;;;;;;;6.81;59.58;102024.66;5033494;28;20091;-76
2022/01/27 08:52:13;;;;;;;15.45;5.53;;;;;;;6.84;60.26;102035.88;5028248;28;20541;-76
2022/01/27 08:54:39;;;;;;;11.48;6.20;;;;;;;6.82;60.10;102027.25;5028041;28;20116;-78
2022/01/27 08:57:05;;;;;;;11.75;5.50;;;;;;;6.88;59.74;102035.06;5023382;28;20138;-78
2022/01/27 08:59:30;;;;;;;17.75;6.15;;;;;;;6.67;61.48;102051.97;5030637;28;20062;-78
2022/01/27 09:01:56;;;;;;;12.02;6.22;;;;;;;6.81;61.00;102050.47;5028835;28;20033;-78
2022/01/27 09:04:22;;;;;;;17.90;6.40;;;;;;;6.86;61.75;102041.94;5032987;28;20037;-78
2022/01/27 09:06:48;;;;;;;11.60;5.10;;;;;;;6.77;61.52;102028.03;5027630;28;20045;-78
2022/01/27 09:09:13;;;;;;;12.63;5.97;;;;;;;6.86;61.13;102026.44;5032758;28;20189;-78
2022/01/27 09:11:43;;;;;;;12.02;5.45;;;;;;;6.84;61.27;102029.88;5029104;28;20052;-78
2022/01/27 09:14:09;;;;;;;12.73;5.68;;;;;;;6.83;61.56;102010.03;5032010;28;20030;-78
2022/01/27 09:16:35;;;;;;;16.25;5.53;;;;;;;7.01;61.35;102000.84;5028034;28;20099;-78
2022/01/27 09:19:02;;;;;;;12.27;4.93;;;;;;;7.05;60.98;101988.78;5030786;28;20057;-79
2022/01/27 09:21:38;;;;;;;14.05;6.40;;;;;;;7.09;60.45;101996.63;5043499;28;20037;-79
2022/01/27 09:24:04;;;;;;;12.02;4.90;;;;;;;7.11;60.96;101999.22;5027837;28;20053;-78
2022/01/27 09:26:51;;;;;;;13.13;6.13;;;;;;;7.04;61.54;101998.28;5028859;28;20053;-78
2022/01/27 09:29:19;;;;;;;13.88;6.15;;;;;;;7.16;61.49;102009.63;5024276;28;20037;-78
2022/01/27 09:31:46;;;;;;;15.52;5.80;;;;;;;7.06;62.64;102004.34;5029266;28;20087;-78
2022/01/27 09:34:12;;;;;;;12.30;5.88;;;;;;;7.00;63.00;102011.13;5025238;28;20041;-78
2022/01/27 09:36:37;;;;;;;15.35;5.80;;;;;;;7.19;61.68;102020.00;5027738;28;20099;-78
2022/01/27 09:39:03;;;;;;;13.18;5.32;;;;;;;7.21;61.90;102020.88;5027673;28;20091;-78
2022/01/27 09:41:35;;;;;;;14.73;6.22;;;;;;;7.29;62.16;102019.25;5030917;28;20483;-79
2022/01/27 09:44:01;;;;;;;15.63;6.05;;;;;;;7.29;61.81;102011.50;5024582;28;20029;-78
2022/01/27 09:46:27;;;;;;;13.60;5.72;;;;;;;7.27;63.40;102010.63;5026474;28;20048;-78
2022/01/27 09:48:54;;;;;;;12.75;6.15;;;;;;;7.16;64.63;102019.94;5027461;28;20109;-78
2022/01/27 09:53:47;;;;;;;17.30;6.57;;;;;;;7.01;67.33;102013.75;5025612;28;20040;-79
2022/01/27 09:56:12;;;;;;;13.25;5.72;;;;;;;7.10;67.85;102015.56;5026695;28;20426;-78
2022/01/27 09:58:39;;;;;;;17.45;6.22;;;;;;;7.13;67.97;102024.25;5030128;28;20034;-78
2022/01/27 10:01:04;;;;;;;17.27;6.75;;;;;;;7.20;67.99;102014.81;5025273;28;20080;-78
2022/01/27 10:03:31;;;;;;;15.43;6.57;;;;;;;7.11;69.13;102014.72;5025552;28;20057;-78
2022/01/27 10:06:12;;;;;;;16.50;5.72;;;;;;;7.13;68.48;102016.50;5025004;28;20628;-78
2022/01/27 10:08:41;;;;;;;15.88;6.88;;;;;;;7.18;68.36;102010.50;5027152;28;20719;-78
2022/01/27 10:11:18;;;;;;;14.98;5.38;;;;;;;7.21;68.00;102018.28;5025699;28;20033;-78
2022/01/27 10:13:46;;;;;;;15.65;5.93;;;;;;;7.15;68.37;102011.31;5030008;28;20045;-78
2022/01/27 10:16:34;;;;;;;12.40;6.25;;;;;;;6.99;68.18;102014.53;5028140;28;20075;-78
2022/01/27 10:19:05;;;;;;;11.32;5.45;;;;;;;6.91;70.17;102013.59;5024144;28;20053;-78
2022/01/27 10:21:31;;;;;;;15.95;6.13;;;;;;;7.05;69.96;102015.50;5025470;28;20033;-78
2022/01/27 10:24:14;;;;;;;16.58;6.88;;;;;;;7.14;69.69;102017.34;5023623;28;20033;-78
2022/01/27 10:26:46;;;;;;;13.23;5.60;;;;;;;6.94;71.22;102014.50;5033354;28;20478;-78
2022/01/27 10:29:29;;;;;;;12.48;5.40;;;;;;;7.04;70.56;102006.03;5027804;28;20041;-78
2022/01/27 10:32:06;;;;;;;11.57;4.72;;;;;;;7.08;70.14;101999.16;5031279;28;20717;-78
2022/01/27 10:34:53;;;;;;;12.82;4.85;;;;;;;7.09;70.80;101993.16;5026978;28;20132;-78
2022/01/27 10:37:18;;;;;;;9.77;4.80;;;;;;;7.10;70.49;101989.75;5026517;28;20063;-78
2022/01/27 10:39:47;;;;;;;12.73;5.50;;;;;;;7.08;71.03;101994.88;5032193;28;20037;-78
2022/01/27 10:42:13;;;;;;;11.50;4.97;;;;;;;7.19;69.87;101994.16;5026428;28;20037;-78
2022/01/27 10:44:54;;;;;;;12.65;5.18;;;;;;;7.04;71.55;102002.59;5028101;28;20096;-78
2022/01/27 10:47:23;;;;;;;12.93;5.18;;;;;;;7.04;71.93;102011.19;5024301;28;20021;-78
2022/01/27 10:50:04;;;;;;;10.20;4.40;;;;;;;7.09;70.98;102003.50;5029115;28;20076;-78
2022/01/27 10:52:45;;;;;;;10.82;5.07;;;;;;;7.11;71.46;101991.44;5024518;28;20065;-78
2022/01/27 10:55:13;;;;;;;8.40;4.25;;;;;;;7.14;70.39;101992.38;5031654;28;20039;-78
2022/01/27 10:57:39;;;;;;;10.00;4.15;;;;;;;7.04;72.29;101993.13;5023611;28;20045;-78
2022/01/27 11:00:19;;;;;;;9.52;4.25;;;;;;;7.11;70.69;101988.88;5032556;28;20083;-78
2022/01/27 11:02:51;;;;;;;10.32;4.72;;;;;;;7.16;72.09;101988.94;5025767;28;20509;-78
2022/01/27 11:05:17;;;;;;;13.55;5.43;;;;;;;7.22;70.99;101976.09;5028216;28;20045;-78
2022/01/27 11:07:44;;;;;;;6.70;3.50;;;;;;;7.29;70.80;101977.88;5044930;28;20041;-78
2022/01/27 11:10:10;;;;;;;9.60;4.38;;;;;;;7.17;71.48;101973.44;5006663;28;20036;-78
2022/01/27 11:12:36;;;;;;;7.82;3.38;;;;;;;7.10;72.25;101975.09;5028039;28;20050;-78
2022/01/27 11:15:01;;;;;;;8.43;3.28;;;;;;;7.31;70.69;101971.91;5026716;28;20041;-78
2022/01/27 11:17:33;;;;;;;5.20;2.85;;;;;;;7.16;71.41;101965.69;5024852;28;20259;-76
2022/01/27 11:22:46;;;;;;;4.57;2.60;;;;;;;7.10;72.85;101961.31;5025412;28;20248;-76
2022/01/27 11:27:49;;;;;;;5.18;2.53;;;;;;;7.22;71.04;101958.88;5024970;28;20034;-76
2022/01/27 11:30:35;;;;;;;5.28;2.25;;;;;;;7.11;72.04;101953.56;5023470;28;20038;-76
2022/01/27 11:33:08;;;;;;;3.40;1.98;;;;;;;7.24;71.64;101945.97;5023985;28;20128;-76
2022/01/27 11:35:34;;;;;;;2.45;1.60;;;;;;;7.30;70.96;101944.31;5020631;28;20018;-77
2022/01/27 11:38:04;;;;;;;5.68;2.03;;;;;;;7.27;72.20;101954.63;5024815;28;20024;-76
2022/01/27 11:40:41;;;;;;;5.78;2.83;;;;;;;7.24;72.47;101941.66;5029867;28;20042;-76
2022/01/27 11:43:17;;;;;;;3.53;1.83;;;;;;;7.16;71.53;101939.84;5023747;28;21042;-76
2022/01/27 11:45:43;;;;;;;4.00;1.83;;;;;;;7.22;71.71;101940.78;5028839;28;20060;-77
2022/01/27 11:48:14;;;;;;;3.55;1.90;;;;;;;7.14;72.34;101950.16;5029356;28;20030;-77
2022/01/27 11:50:56;;;;;;;3.55;1.92;;;;;;;7.38;70.82;101945.25;5029523;28;20069;-76
2022/01/27 11:53:35;;;;;;;3.20;1.80;;;;;;;7.39;71.10;101936.66;5029066;28;20040;-77
2022/01/27 11:56:06;;;;;;;4.10;1.90;;;;;;;7.32;71.84;101929.69;5028193;28;20056;-76
2022/01/27 11:58:43;;;;;;;4.35;1.75;;;;;;;7.42;71.28;101928.94;5027297;28;20583;-77
2022/01/27 12:01:11;;;;;;;3.80;1.73;;;;;;;7.35;71.97;101911.63;5025558;28;20491;-77
2022/01/27 12:03:38;;;;;;;3.67;1.80;;;;;;;7.32;72.60;101919.34;5023261;28;20510;-77
2022/01/27 12:06:17;;;;;;;3.45;1.60;;;;;;;7.32;72.15;101923.66;5029211;28;20060;-76
2022/01/27 12:08:43;;;;;;;2.47;1.27;;;;;;;7.23;72.76;101921.00;5031127;28;20027;-77
2022/01/27 12:11:11;;;;;;;3.28;1.38;;;;;;;7.24;72.04;101917.53;5031996;28;20386;-77
2022/01/27 12:13:42;;;;;;;2.67;1.55;;;;;;;7.12;73.15;101926.91;5029240;28;20136;-76
2022/01/27 12:19:08;;;;;;;2.45;1.50;;;;;;;7.33;72.11;101917.63;5026025;28;20048;-76
2022/01/27 12:21:36;;;;;;;1.83;1.10;;;;;;;7.24;72.32;101915.81;5036842;28;20037;-77
2022/01/27 12:24:24;;;;;;;2.80;1.20;;;;;;;7.23;72.04;101918.41;5026623;28;20506;-77